createdAt,value
2018-08-28T00:00:04.156Z,13.7
2018-08-28T00:05:04.109Z,13.7
2018-08-28T00:10:04.122Z,13.6
2018-08-28T00:15:04.111Z,13.53
2018-08-28T00:20:04.110Z,13.48
2018-08-28T00:25:04.111Z,13.46
2018-08-28T00:30:04.124Z,13.48
2018-08-28T00:35:04.122Z,13.43
2018-08-28T00:40:04.119Z,13.29
2018-08-28T00:45:04.137Z,13.23
2018-08-28T00:50:04.126Z,13.24
2018-08-28T00:55:04.146Z,13.24
2018-08-28T01:00:04.138Z,13.26
2018-08-28T01:05:04.154Z,13.38
2018-08-28T01:10:04.146Z,13.47
2018-08-28T01:15:04.159Z,13.5
2018-08-28T01:20:04.150Z,13.56
2018-08-28T01:25:04.142Z,13.59
2018-08-28T01:30:04.163Z,13.58
2018-08-28T01:35:04.148Z,13.58
2018-08-28T01:40:04.157Z,13.59
2018-08-28T01:45:04.170Z,13.65
2018-08-28T01:50:04.161Z,13.75
2018-08-28T01:55:04.162Z,13.77
2018-08-28T02:00:04.167Z,13.76
2018-08-28T02:05:04.174Z,13.81
2018-08-28T02:10:04.185Z,13.79
2018-08-28T02:15:04.173Z,13.77
2018-08-28T02:20:04.175Z,13.77
2018-08-28T02:25:04.178Z,13.75
2018-08-28T02:30:04.188Z,13.7
2018-08-28T02:35:04.177Z,13.7
2018-08-28T02:40:04.183Z,13.71
2018-08-28T02:45:04.181Z,13.73
2018-08-28T02:50:04.205Z,13.7
2018-08-28T02:55:04.187Z,13.68
2018-08-28T03:00:04.195Z,13.68
2018-08-28T03:05:04.194Z,13.66
2018-08-28T03:10:04.196Z,13.67
2018-08-28T03:15:04.201Z,13.67
2018-08-28T03:20:04.203Z,13.65
2018-08-28T03:25:04.205Z,13.67
2018-08-28T03:30:04.203Z,13.66
2018-08-28T03:35:04.209Z,13.64
2018-08-28T03:40:04.207Z,13.65
2018-08-28T03:45:04.260Z,13.68
2018-08-28T03:50:04.215Z,13.67
2018-08-28T03:55:04.223Z,13.65
2018-08-28T04:00:04.218Z,13.63
2018-08-28T04:05:04.224Z,13.59
2018-08-28T04:10:04.225Z,13.55
2018-08-28T04:15:04.230Z,13.52
2018-08-28T04:20:04.256Z,13.46
2018-08-28T04:25:04.230Z,13.33
2018-08-28T04:30:04.237Z,13.2
2018-08-28T04:35:04.241Z,13.03
2018-08-28T04:40:04.239Z,12.82
2018-08-28T04:45:04.252Z,12.74
2018-08-28T04:50:04.249Z,12.63
2018-08-28T04:55:04.373Z,12.58
2018-08-28T05:00:04.256Z,12.43
2018-08-28T05:05:04.259Z,12.36
2018-08-28T05:10:04.268Z,12.45
2018-08-28T05:15:04.265Z,12.63
2018-08-28T05:20:04.266Z,12.94
2018-08-28T05:25:04.270Z,13.25
2018-08-28T05:30:04.270Z,13.62
2018-08-28T05:35:04.278Z,13.95
2018-08-28T05:40:04.276Z,14.21
2018-08-28T05:45:04.282Z,14.44
2018-08-28T05:50:04.290Z,14.65
2018-08-28T05:55:04.294Z,14.82
2018-08-28T06:00:04.288Z,15
2018-08-28T06:05:04.291Z,15.14
2018-08-28T06:10:04.293Z,15.25
2018-08-28T06:15:04.308Z,15.49
2018-08-28T06:20:04.297Z,15.82
2018-08-28T06:25:04.302Z,16.22
2018-08-28T06:30:04.304Z,16.58
2018-08-28T06:35:04.304Z,16.81
2018-08-28T06:40:04.310Z,16.87
2018-08-28T06:45:04.314Z,16.77
2018-08-28T06:50:04.315Z,16.81
2018-08-28T06:55:04.315Z,17.07
2018-08-28T07:00:04.321Z,17.31
2018-08-28T07:05:04.330Z,17.64
2018-08-28T07:10:04.373Z,17.8
2018-08-28T07:15:04.331Z,18.09
2018-08-28T07:20:04.338Z,18.39
2018-08-28T07:25:04.336Z,18.47
2018-08-28T07:30:04.338Z,18.44
2018-08-28T07:35:04.342Z,18.52
2018-08-28T07:40:04.346Z,18.68
2018-08-28T07:45:04.352Z,18.69
2018-08-28T07:50:04.348Z,19.02
2018-08-28T07:55:04.354Z,19.25
2018-08-28T08:00:04.354Z,19.24
2018-08-28T08:05:04.360Z,19.21
2018-08-28T08:10:04.365Z,19.39
2018-08-28T08:15:04.362Z,19.69
2018-08-28T08:20:04.368Z,19.9
2018-08-28T08:25:04.367Z,20.03
2018-08-28T08:30:04.369Z,20.01
2018-08-28T08:35:04.377Z,20.24
2018-08-28T08:40:04.377Z,20.32
2018-08-28T08:45:04.441Z,20.68
2018-08-28T08:50:04.384Z,20.85
2018-08-28T08:55:04.459Z,20.43
2018-08-28T09:00:04.387Z,20.72
2018-08-28T09:05:04.395Z,20.92
2018-08-28T09:10:04.394Z,21.15
2018-08-28T09:15:03.402Z,21.89
2018-08-28T09:20:03.406Z,22.1
2018-08-28T09:25:03.404Z,22.63
2018-08-28T09:30:03.407Z,23.24
2018-08-28T09:35:03.415Z,23.99
2018-08-28T09:40:03.412Z,25.47
2018-08-28T09:45:03.414Z,25.5
2018-08-28T09:50:03.421Z,25.94
2018-08-28T09:55:03.418Z,25.3
2018-08-28T10:00:03.421Z,24.87
2018-08-28T10:05:03.425Z,23.99
2018-08-28T10:10:03.431Z,23.05
2018-08-28T10:15:03.429Z,22.42
2018-08-28T10:20:03.433Z,22.12
2018-08-28T10:25:03.434Z,22.86
2018-08-28T10:30:03.451Z,23.36
2018-08-28T10:35:03.449Z,24.01
2018-08-28T10:40:03.439Z,23.51
2018-08-28T10:45:03.447Z,22.72
2018-08-28T10:50:03.452Z,22.47
2018-08-28T10:55:03.453Z,22.54
2018-08-28T11:00:03.453Z,23.14
2018-08-28T11:05:03.463Z,23.35
2018-08-28T11:10:03.457Z,23.14
2018-08-28T11:15:03.463Z,22.77
2018-08-28T11:20:03.467Z,23.08
2018-08-28T11:25:03.466Z,24.31
2018-08-28T11:30:03.474Z,24.66
2018-08-28T11:35:03.474Z,24.06
2018-08-28T11:40:03.473Z,23.64
2018-08-28T11:45:03.478Z,23.1
2018-08-28T11:50:03.479Z,22.77
2018-08-28T11:55:03.495Z,23.08
2018-08-28T12:00:03.484Z,23.81
2018-08-28T12:05:03.545Z,24.14
2018-08-28T12:10:03.512Z,23.95
2018-08-28T12:15:03.489Z,23.22
2018-08-28T12:20:03.498Z,22.21
2018-08-28T12:25:03.496Z,21.55
2018-08-28T12:30:03.503Z,21.38
2018-08-28T12:35:03.507Z,21.6
2018-08-28T12:40:03.508Z,22.01
2018-08-28T12:45:03.509Z,22.35
2018-08-28T12:50:03.513Z,22.68
2018-08-28T12:55:03.605Z,22.66
2018-08-28T13:00:03.517Z,22.75
2018-08-28T13:05:03.521Z,23.18
2018-08-28T13:10:03.521Z,24.33
2018-08-28T13:15:03.532Z,26.05
2018-08-28T13:20:03.530Z,25.63
2018-08-28T13:25:03.533Z,24.82
2018-08-28T13:30:03.529Z,23.59
2018-08-28T13:35:03.539Z,23.13
2018-08-28T13:40:03.538Z,23.01
2018-08-28T13:45:03.539Z,23.25
2018-08-28T13:50:03.541Z,23.5
2018-08-28T13:55:03.544Z,24.11
2018-08-28T14:00:03.622Z,24.32
2018-08-28T14:05:03.556Z,24.98
2018-08-28T14:10:03.550Z,26.04
2018-08-28T14:15:03.692Z,27.55
2018-08-28T14:20:03.559Z,27.38
2018-08-28T14:25:03.560Z,29.46
2018-08-28T14:30:03.566Z,30.86
2018-08-28T14:35:03.570Z,32.03
2018-08-28T14:40:03.570Z,32.66
2018-08-28T14:45:03.574Z,32.68
2018-08-28T14:50:03.718Z,33.31
2018-08-28T14:55:03.575Z,33.56
2018-08-28T15:00:03.578Z,33.03
2018-08-28T15:05:03.584Z,31.73
2018-08-28T15:10:03.589Z,32.5
2018-08-28T15:15:03.585Z,32.68
2018-08-28T15:20:03.597Z,33.22
2018-08-28T15:25:03.589Z,32.38
2018-08-28T15:30:03.600Z,32.52
2018-08-28T15:35:03.620Z,32.22
2018-08-28T15:40:03.604Z,32.32
2018-08-28T15:45:03.601Z,32.34
2018-08-28T15:50:03.621Z,31.7
2018-08-28T15:55:03.607Z,29.62
2018-08-28T16:00:03.612Z,27.67
2018-08-28T16:05:03.634Z,26.25
2018-08-28T16:10:03.621Z,25.12
2018-08-28T16:15:03.619Z,24.58
2018-08-28T16:20:03.632Z,23.9
2018-08-28T16:25:03.630Z,23.7
2018-08-28T16:30:03.632Z,23.26
2018-08-28T16:35:03.651Z,22.93
2018-08-28T16:40:03.637Z,22.49
2018-08-28T16:45:03.648Z,22.27
2018-08-28T16:50:03.690Z,21.93
2018-08-28T16:55:03.643Z,21.73
2018-08-28T17:00:03.652Z,21.51
2018-08-28T17:05:03.652Z,21.42
2018-08-28T17:10:03.651Z,21.31
2018-08-28T17:15:03.693Z,21.15
2018-08-28T17:20:03.678Z,21.02
2018-08-28T17:25:03.661Z,20.85
2018-08-28T17:30:03.665Z,20.6
2018-08-28T17:35:03.673Z,20.28
2018-08-28T17:40:03.671Z,19.84
2018-08-28T17:45:03.668Z,19.45
2018-08-28T17:50:03.680Z,19.04
2018-08-28T17:55:03.684Z,18.66
2018-08-28T18:00:03.679Z,18.39
2018-08-28T18:05:03.687Z,18.19
2018-08-28T18:10:03.689Z,18.02
2018-08-28T18:15:03.685Z,17.77
2018-08-28T18:20:03.698Z,17.39
2018-08-28T18:25:03.696Z,16.98
2018-08-28T18:30:03.703Z,16.59
2018-08-28T18:35:03.707Z,16.22
2018-08-28T18:40:03.708Z,15.87
2018-08-28T18:45:03.707Z,15.6
2018-08-28T18:50:03.717Z,15.39
2018-08-28T18:55:03.729Z,15.11
2018-08-28T19:00:03.715Z,14.92
2018-08-28T19:05:03.729Z,14.68
2018-08-28T19:10:03.733Z,14.51
2018-08-28T19:15:03.724Z,14.35
2018-08-28T19:20:03.735Z,14.23
2018-08-28T19:25:03.724Z,14.18
2018-08-28T19:30:03.731Z,14.09
2018-08-28T19:35:03.736Z,13.95
2018-08-28T19:40:03.731Z,13.89
2018-08-28T19:45:03.736Z,13.76
2018-08-28T19:50:03.759Z,13.64
2018-08-28T19:55:03.743Z,13.5
2018-08-28T20:00:03.741Z,13.38
2018-08-28T20:05:03.753Z,13.38
2018-08-28T20:10:03.748Z,13.36
2018-08-28T20:15:03.753Z,13.45
2018-08-28T20:20:03.763Z,13.48
2018-08-28T20:25:03.754Z,13.41
2018-08-28T20:30:03.765Z,13.4
2018-08-28T20:35:03.769Z,13.38
2018-08-28T20:40:03.766Z,13.29
2018-08-28T20:45:03.769Z,13.2
2018-08-28T20:50:03.777Z,13.2
2018-08-28T20:55:03.773Z,13.16
2018-08-28T21:00:03.770Z,13.1
2018-08-28T21:05:03.791Z,13.09
2018-08-28T21:10:03.782Z,13.04
2018-08-28T21:15:03.781Z,12.99
2018-08-28T21:20:03.801Z,13.04
2018-08-28T21:25:03.794Z,13.02
2018-08-28T21:30:03.798Z,12.97
2018-08-28T21:35:03.799Z,12.9
2018-08-28T21:40:03.796Z,12.81
2018-08-28T21:45:03.796Z,12.67
2018-08-28T21:50:03.819Z,12.48
2018-08-28T21:55:03.804Z,12.22
2018-08-28T22:00:03.864Z,12.03
2018-08-28T22:05:03.816Z,11.94
2018-08-28T22:10:03.817Z,11.92
2018-08-28T22:15:03.832Z,11.96
2018-08-28T22:20:03.819Z,12.06
2018-08-28T22:25:03.846Z,12.05
2018-08-28T22:30:03.829Z,11.94
2018-08-28T22:35:03.843Z,11.86
2018-08-28T22:40:03.837Z,11.78
2018-08-28T22:45:03.850Z,11.64
2018-08-28T22:50:03.866Z,11.54
2018-08-28T22:55:03.841Z,11.57
2018-08-28T23:00:03.837Z,11.67
2018-08-28T23:05:03.845Z,11.92
2018-08-28T23:10:03.870Z,11.99
2018-08-28T23:15:03.848Z,11.87
2018-08-28T23:20:03.856Z,11.7
2018-08-28T23:25:03.882Z,11.63
2018-08-28T23:30:03.869Z,11.57
2018-08-28T23:35:03.873Z,11.43
2018-08-28T23:40:03.857Z,11.32
2018-08-28T23:45:03.867Z,11.34
2018-08-28T23:50:03.875Z,11.38
2018-08-28T23:55:03.894Z,11.34
